Time;durP1;ratioP1;P1;durP2;ratioP2;P2;SDS_P1;SDS_P2;PMS_P1;PMS_P2;Temp;Humidity;BMP_temperature;BMP_pressure;BME280_temperature;BME280_humidity;BME280_pressure;Samples;Min_cycle;Max_cycle;Signal;HPM_P1;HPM_P2
2021/06/05 00:01:24;;;;;;;4.33;2.20;;;14.60;99.90;;;15.50;61.33;94821.41;5085680;28;20284;-70
2021/06/05 00:03:54;;;;;;;2.47;1.67;;;14.60;99.90;;;15.48;61.53;94832.34;5064911;28;20641;-71
2021/06/05 00:06:24;;;;;;;3.67;2.07;;;14.60;99.90;;;15.39;61.55;94825.94;5084610;28;20191;-71
2021/06/05 00:08:53;;;;;;;3.23;2.23;;;14.60;99.90;;;15.36;61.76;94821.94;5084544;28;20275;-71
2021/06/05 00:11:26;;;;;;;3.43;2.30;;;14.50;99.90;;;15.35;61.96;94819.53;5071294;28;20249;-71
2021/06/05 00:13:59;;;;;;;3.37;2.27;;;14.50;99.90;;;15.36;62.02;94821.13;5067968;28;20202;-71
2021/06/05 00:16:33;;;;;;;4.27;2.37;;;14.50;99.90;;;15.33;62.20;94819.81;5083677;28;20201;-71
2021/06/05 00:19:02;;;;;;;3.10;2.57;;;14.50;99.90;;;15.33;62.14;94822.47;5084338;28;20207;-71
2021/06/05 00:21:28;;;;;;;4.73;2.60;;;14.40;99.90;;;15.33;62.35;94811.81;5086107;28;20604;-71
2021/06/05 00:23:56;;;;;;;2.93;2.27;;;14.50;99.90;;;15.40;62.43;94820.34;5083479;28;20220;-71
2021/06/05 00:26:23;;;;;;;4.43;2.80;;;14.50;99.90;;;15.32;62.57;94815.53;5083376;28;20202;-70
2021/06/05 00:28:49;;;;;;;4.53;3.00;;;14.50;99.90;;;15.29;62.59;94820.63;5085524;28;20195;-72
2021/06/05 00:31:18;;;;;;;5.73;2.80;;;14.40;99.90;;;15.25;62.72;94815.00;5067852;28;20191;-71
2021/06/05 00:33:44;;;;;;;3.70;2.40;;;14.40;99.90;;;15.29;62.95;94824.09;5085403;28;20195;-71
2021/06/05 00:36:13;;;;;;;2.27;2.00;;;14.40;99.90;;;15.27;62.88;94826.25;5083845;28;20306;-71
2021/06/05 00:38:40;;;;;;;3.97;1.80;;;14.40;99.90;;;15.30;62.98;94816.88;5067831;28;20197;-71
2021/06/05 00:41:13;;;;;;;2.10;1.90;;;14.50;99.90;;;15.34;62.98;94831.31;5083269;28;20241;-70
2021/06/05 00:43:44;;;;;;;2.10;1.90;;;14.40;99.90;;;15.36;63.11;94819.25;5086107;28;20210;-72
2021/06/05 00:46:12;;;;;;;2.40;2.20;;;14.50;99.90;;;15.29;63.31;94812.59;5066669;28;20288;-71
2021/06/05 00:48:40;;;;;;;4.30;2.30;;;14.50;99.90;;;15.20;63.36;94812.38;5074171;28;20201;-71
2021/06/05 00:51:09;;;;;;;3.33;2.67;;;14.40;99.90;;;15.17;63.30;94809.44;5083544;28;20554;-70
2021/06/05 00:53:36;;;;;;;3.23;2.90;;;14.40;99.90;;;15.23;63.62;94801.13;5077324;28;20191;-71
2021/06/05 00:56:10;;;;;;;5.37;2.83;;;14.40;99.90;;;15.30;63.64;94800.84;5067311;28;20739;-70
2021/06/05 00:58:39;;;;;;;5.17;2.83;;;14.40;99.90;;;15.35;63.87;94795.47;5085442;28;20194;-71
2021/06/05 01:01:13;;;;;;;4.57;3.40;;;14.50;99.90;;;15.45;63.81;94808.00;5081558;28;20206;-71
2021/06/05 01:03:39;;;;;;;3.50;3.07;;;14.60;99.90;;;15.48;64.06;94802.16;5071796;28;20206;-71
2021/06/05 01:06:20;;;;;;;3.93;3.03;;;14.60;99.90;;;15.46;64.11;94799.72;5052258;28;20205;-72
2021/06/05 01:09:12;;;;;;;3.70;3.37;;;14.60;99.90;;;15.45;64.17;94795.44;5069642;28;20875;-71
2021/06/05 01:11:59;;;;;;;3.67;3.23;;;14.60;99.90;;;15.39;64.41;94789.34;5087936;28;20198;-70
2021/06/05 01:14:41;;;;;;;5.93;4.43;;;14.60;99.90;;;15.37;64.27;94793.34;5088226;28;20322;-71
2021/06/05 01:17:12;;;;;;;9.13;4.20;;;14.50;99.90;;;15.42;64.89;94793.31;5090068;28;20183;-71
2021/06/05 01:19:54;;;;;;;6.30;4.40;;;14.50;99.90;;;15.47;64.73;94787.97;5071278;28;20718;-71
2021/06/05 01:23:02;;;;;;;4.87;4.07;;;14.60;99.90;;;15.51;64.70;94785.59;5084022;28;20231;-72
2021/06/05 01:26:14;;;;;;;4.50;4.10;;;14.80;99.90;;;15.43;64.78;94783.44;5087848;28;20213;-70
2021/06/05 01:28:54;;;;;;;6.57;4.30;;;14.70;99.90;;;15.44;65.10;94777.03;5070350;28;20281;-71
2021/06/05 01:31:30;;;;;;;4.77;4.27;;;14.80;99.90;;;15.48;64.73;94775.44;5070586;28;20198;-71
2021/06/05 01:33:56;;;;;;;5.27;4.20;;;14.60;99.90;;;15.48;65.17;94776.22;5071999;28;20182;-71
2021/06/05 01:36:25;;;;;;;4.20;3.70;;;14.60;99.90;;;15.48;65.36;94764.75;5054304;28;20617;-70
2021/06/05 01:38:57;;;;;;;4.50;4.10;;;14.60;99.90;;;15.48;65.26;94773.56;5063408;28;20199;-70
2021/06/05 01:41:27;;;;;;;6.93;4.70;;;14.60;99.90;;;15.47;65.40;94774.63;5089791;28;20189;-71
2021/06/05 01:43:54;;;;;;;5.57;4.93;;;14.60;99.90;;;15.43;65.29;94762.06;5070160;28;20233;-71
2021/06/05 01:46:39;;;;;;;6.43;4.47;;;14.50;99.90;;;15.41;65.72;94759.69;5086936;28;20606;-71
2021/06/05 01:49:06;;;;;;;5.47;4.37;;;14.50;99.90;;;15.45;65.82;94758.06;5071467;28;20226;-71
2021/06/05 01:51:33;;;;;;;5.23;4.50;;;14.60;99.90;;;15.44;65.75;94755.66;5088003;28;20194;-71
2021/06/05 01:54:11;;;;;;;4.87;4.47;;;14.60;99.90;;;15.38;66.05;94752.19;5072147;28;20260;-71
2021/06/05 01:56:46;;;;;;;7.27;4.93;;;14.50;99.90;;;15.37;66.16;94747.94;5070392;28;20646;-71
2021/06/05 01:59:15;;;;;;;4.57;4.13;;;14.50;99.90;;;15.37;66.08;94743.41;5085290;28;20199;-71
2021/06/05 02:01:47;;;;;;;5.93;4.50;;;14.50;99.90;;;15.35;66.26;94745.53;5085944;28;20231;-70
2021/06/05 02:04:14;;;;;;;5.33;4.63;;;14.50;99.90;;;15.35;66.29;94742.88;5085023;28;20597;-71
2021/06/05 02:06:44;;;;;;;4.97;4.47;;;14.50;99.90;;;15.39;66.44;94748.47;5069024;28;20181;-71
2021/06/05 02:09:13;;;;;;;5.90;3.93;;;14.50;99.90;;;15.38;66.65;94745.00;5069002;28;20277;-71
2021/06/05 02:11:45;;;;;;;4.67;3.83;;;14.50;99.90;;;15.39;66.86;94741.25;5099125;28;20191;-70
2021/06/05 02:14:25;;;;;;;4.60;4.20;;;14.60;99.90;;;15.43;66.83;94748.72;5087814;28;20190;-71
2021/06/05 02:17:03;;;;;;;5.20;3.97;;;14.50;99.90;;;15.40;66.73;94748.19;5069298;28;20250;-71
2021/06/05 02:19:34;;;;;;;4.57;3.73;;;14.60;99.90;;;15.41;66.90;94746.34;5084090;28;20200;-71
2021/06/05 02:22:06;;;;;;;4.50;4.10;;;14.50;99.90;;;15.37;66.77;94732.72;5074403;28;20194;-71
2021/06/05 02:24:46;;;;;;;4.20;3.80;;;14.50;99.90;;;15.38;67.13;94739.66;5077196;28;20287;-71
2021/06/05 02:27:20;;;;;;;4.33;4.03;;;14.50;99.90;;;15.37;67.30;94732.72;5086643;28;20198;-71
2021/06/05 02:29:47;;;;;;;4.57;4.17;;;14.60;99.90;;;15.33;67.03;94725.53;5086025;28;20191;-71
2021/06/05 02:32:19;;;;;;;5.00;3.97;;;14.50;99.90;;;15.34;67.12;94725.22;5069860;28;20197;-71
2021/06/05 02:34:47;;;;;;;5.07;4.10;;;14.50;99.90;;;15.34;67.21;94727.13;5061780;28;20194;-71
2021/06/05 02:37:17;;;;;;;5.87;4.20;;;14.50;99.90;;;15.40;67.28;94731.38;5065658;28;20220;-71
2021/06/05 02:39:43;;;;;;;4.77;4.20;;;14.60;99.90;;;15.29;67.39;94705.75;5086872;28;20182;-69
2021/06/05 02:42:18;;;;;;;4.57;4.17;;;14.50;99.90;;;15.27;67.48;94707.91;5084799;28;20252;-69
2021/06/05 02:44:52;;;;;;;4.67;4.07;;;14.50;99.90;;;15.22;67.63;94697.25;5089626;28;20185;-70
2021/06/05 02:47:19;;;;;;;5.03;4.60;;;14.50;99.90;;;15.19;67.73;94695.13;5084283;28;20876;-70
2021/06/05 02:49:46;;;;;;;5.30;4.77;;;14.40;99.90;;;15.22;67.52;94698.06;5069236;28;20194;-70
2021/06/05 02:52:36;;;;;;;4.83;4.40;;;14.40;99.90;;;15.14;67.48;94698.59;5084796;28;20195;-70
2021/06/05 02:55:14;;;;;;;5.47;4.40;;;14.40;99.90;;;15.16;67.86;94698.34;5070918;28;20190;-70
2021/06/05 02:57:45;;;;;;;4.70;4.20;;;14.40;99.90;;;15.02;68.10;94684.78;5067092;28;20209;-70
2021/06/05 03:00:32;;;;;;;6.67;4.83;;;14.30;99.90;;;14.96;68.13;94693.88;5078437;28;20283;-70
2021/06/05 03:02:59;;;;;;;5.30;4.83;;;14.20;99.90;;;14.97;68.22;94684.81;5087785;28;21129;-70
2021/06/05 03:05:26;;;;;;;5.67;5.17;;;14.20;99.90;;;14.92;67.94;94687.47;5069864;28;20198;-69
2021/06/05 03:07:52;;;;;;;5.47;4.97;;;14.10;99.90;;;14.83;68.46;94679.25;5084098;28;20210;-70
2021/06/05 03:10:23;;;;;;;5.70;4.20;;;14.10;99.90;;;14.77;68.41;94692.88;5085194;28;20282;-69
2021/06/05 03:12:51;;;;;;;6.20;5.60;;;14.00;99.90;;;14.69;68.55;94686.19;5085301;28;20191;-70
2021/06/05 03:15:19;;;;;;;6.20;5.37;;;13.90;99.90;;;14.68;68.68;94678.47;5085563;28;20274;-70
2021/06/05 03:17:45;;;;;;;7.33;5.83;;;13.90;99.90;;;14.64;68.56;94669.41;5068983;28;20196;-69
2021/06/05 03:20:20;;;;;;;5.90;5.40;;;13.80;99.90;;;14.61;68.43;94669.94;5086128;28;20201;-69
2021/06/05 03:22:47;;;;;;;6.10;5.50;;;13.80;99.90;;;14.58;68.64;94662.47;5067159;28;20232;-70
2021/06/05 03:25:15;;;;;;;6.50;5.90;;;13.70;99.90;;;14.59;68.75;94664.06;5101493;28;20191;-70
2021/06/05 03:27:44;;;;;;;7.10;6.40;;;13.80;99.90;;;14.51;68.86;94661.94;5067630;28;20216;-70
2021/06/05 03:30:12;;;;;;;5.67;5.27;;;13.70;99.90;;;14.50;68.88;94665.72;5069185;28;20194;-70
2021/06/05 03:32:38;;;;;;;6.23;5.60;;;13.70;99.90;;;14.46;68.88;94657.44;5056100;28;20641;-70
2021/06/05 03:35:06;;;;;;;6.03;5.47;;;13.70;99.90;;;14.53;69.13;94659.81;5080952;28;20229;-70
2021/06/05 03:37:33;;;;;;;6.00;5.40;;;13.70;99.90;;;14.50;69.35;94652.38;5070565;28;20194;-70
2021/06/05 03:40:00;;;;;;;5.90;5.30;;;13.70;99.90;;;14.54;69.43;94645.44;5082127;28;20213;-70
2021/06/05 03:42:27;;;;;;;6.03;5.43;;;13.70;99.90;;;14.57;69.25;94652.88;5088251;28;20211;-70
2021/06/05 03:44:56;;;;;;;8.20;5.67;;;13.70;99.90;;;14.57;69.38;94658.22;5067037;28;20691;-72
2021/06/05 03:47:26;;;;;;;6.07;5.10;;;14.30;99.90;;;14.57;69.79;94651.00;5084012;28;20540;-70
2021/06/05 03:49:53;;;;;;;6.67;4.73;;;13.60;99.90;;;14.62;69.64;94655.53;5084132;28;20191;-70
2021/06/05 03:52:23;;;;;;;5.23;3.87;;;14.10;99.90;;;14.64;69.88;94659.53;5067997;28;20207;-70
2021/06/05 03:54:53;;;;;;;4.33;3.93;;;13.80;99.90;;;14.68;69.80;94654.44;5078094;28;20204;-70
2021/06/05 03:57:22;;;;;;;5.33;4.83;;;13.80;99.90;;;14.76;69.77;94660.03;5085788;28;20194;-71
2021/06/05 03:59:54;;;;;;;4.40;3.97;;;13.90;99.90;;;14.81;69.87;94656.53;5083791;28;20196;-71
2021/06/05 04:02:23;;;;;;;5.17;3.50;;;13.90;99.90;;;14.79;69.71;94654.16;5084860;28;20257;-70
2021/06/05 04:04:53;;;;;;;4.13;3.17;;;13.90;99.90;;;14.78;69.90;94649.06;5080844;28;20233;-70
2021/06/05 04:07:20;;;;;;;4.63;3.60;;;13.90;99.90;;;14.85;70.05;94655.72;5086464;28;20190;-72
2021/06/05 04:09:47;;;;;;;3.37;2.90;;;14.00;99.90;;;14.95;70.20;94657.56;5084247;28;20607;-72
2021/06/05 04:12:14;;;;;;;3.70;3.20;;;14.00;99.90;;;14.98;70.08;94654.34;5064153;28;20290;-71
2021/06/05 04:14:44;;;;;;;3.70;2.97;;;14.10;99.90;;;15.03;70.15;94650.88;5070698;28;20186;-72
2021/06/05 04:17:14;;;;;;;3.50;3.07;;;14.10;99.90;;;15.05;70.16;94646.84;5087278;28;20291;-72
2021/06/05 04:19:43;;;;;;;3.83;3.50;;;14.20;99.90;;;15.11;70.36;94661.00;5084506;28;20506;-71
2021/06/05 04:22:10;;;;;;;6.17;4.27;;;14.20;99.90;;;15.16;70.29;94660.97;5084253;28;20194;-70
2021/06/05 04:24:37;;;;;;;5.53;4.70;;;14.30;99.90;;;15.26;70.42;94669.72;5084562;28;20186;-70
2021/06/05 04:27:08;;;;;;;5.87;5.03;;;14.40;99.90;;;15.32;70.53;94665.94;5084691;28;20231;-70
2021/06/05 04:29:35;;;;;;;10.33;5.07;;;14.40;99.90;;;15.33;70.46;94666.75;5068962;28;20182;-70
2021/06/05 04:32:02;;;;;;;12.17;6.67;;;14.40;99.90;;;15.41;70.72;94671.53;5067813;28;20198;-70
2021/06/05 04:34:28;;;;;;;19.77;6.50;;;14.50;99.90;;;15.40;70.84;94664.59;5083528;28;20207;-71
2021/06/05 04:36:54;;;;;;;130.47;10.33;;;14.50;99.90;;;15.47;70.94;94673.09;5084178;28;20241;-70
2021/06/05 04:39:21;;;;;;;109.03;10.13;;;14.60;99.90;;;15.47;70.72;94666.97;5085118;28;20201;-71
2021/06/05 04:41:50;;;;;;;266.63;14.53;;;14.60;99.90;;;15.50;70.94;94667.22;5070096;28;20196;-71
2021/06/05 04:44:17;;;;;;;186.67;13.70;;;14.60;99.90;;;15.57;70.91;94672.28;5084150;28;20542;-71
2021/06/05 04:46:45;;;;;;;137.47;10.67;;;14.70;99.90;;;15.61;70.81;94676.00;5067171;28;21156;-70
2021/06/05 04:49:14;;;;;;;147.80;12.60;;;14.70;99.90;;;15.70;71.10;94680.47;5088970;28;20197;-71
2021/06/05 04:51:41;;;;;;;264.30;15.57;;;14.80;99.90;;;15.79;71.04;94675.34;5083468;28;20196;-71
2021/06/05 04:54:10;;;;;;;218.50;13.90;;;14.90;99.90;;;15.86;71.11;94667.81;5087915;28;20210;-71
2021/06/05 04:56:44;;;;;;;94.00;10.30;;;15.00;99.90;;;15.93;70.88;94676.31;5089786;28;20204;-71
2021/06/05 04:59:17;;;;;;;54.77;10.00;;;15.00;99.90;;;15.99;71.20;94675.19;5067667;28;20186;-72
2021/06/05 05:01:45;;;;;;;28.73;8.87;;;15.10;99.90;;;16.00;71.43;94663.44;5085611;28;20194;-72
2021/06/05 05:04:14;;;;;;;67.93;10.27;;;15.10;99.90;;;16.06;71.53;94674.88;5089108;28;20209;-72
2021/06/05 05:06:40;;;;;;;57.87;9.83;;;15.20;99.90;;;16.03;71.38;94680.78;5087861;28;20592;-71
2021/06/05 05:09:10;;;;;;;40.63;10.37;;;15.10;99.90;;;16.20;71.58;94691.88;5088881;28;20194;-72
2021/06/05 05:11:39;;;;;;;13.27;8.80;;;15.30;99.90;;;16.22;71.58;94679.81;5084762;28;20229;-71
2021/06/05 05:14:06;;;;;;;8.63;7.90;;;15.40;99.90;;;16.27;71.62;94693.19;5064555;28;20256;-72
2021/06/05 05:16:35;;;;;;;10.27;8.50;;;15.40;99.90;;;16.28;71.48;94693.97;5081681;28;20190;-72
2021/06/05 05:19:01;;;;;;;8.13;7.33;;;15.40;99.90;;;16.21;71.55;94691.63;5088647;28;20198;-71
2021/06/05 05:21:28;;;;;;;18.63;9.07;;;15.40;99.90;;;16.20;71.69;94697.25;5084870;28;20290;-71
2021/06/05 05:23:55;;;;;;;8.90;8.20;;;15.40;99.90;;;16.22;71.67;94695.06;5066729;28;20215;-72
2021/06/05 05:26:30;;;;;;;9.20;8.27;;;15.40;99.90;;;16.18;71.79;94705.53;5067230;28;20350;-72
2021/06/05 05:29:01;;;;;;;12.13;8.73;;;15.30;99.90;;;16.23;71.72;94699.34;5081757;28;20193;-72
2021/06/05 05:31:29;;;;;;;11.17;8.43;;;15.30;99.90;;;16.36;72.29;94702.19;5084979;28;20191;-71
2021/06/05 05:33:56;;;;;;;9.40;8.50;;;15.40;99.90;;;16.50;71.86;94705.00;5068990;28;20188;-72
2021/06/05 05:36:32;;;;;;;9.23;8.20;;;15.60;99.90;;;16.64;71.92;94706.00;5066870;28;20743;-72
2021/06/05 05:39:00;;;;;;;9.60;8.70;;;15.70;99.90;;;16.83;71.57;94703.38;5067490;28;20190;-72
2021/06/05 05:41:28;;;;;;;9.53;8.73;;;15.90;99.90;;;16.92;72.00;94691.78;5083946;28;20274;-72
2021/06/05 05:43:55;;;;;;;10.10;8.87;;;16.00;99.90;;;17.00;72.15;94698.41;5084524;28;20211;-72
2021/06/05 05:46:21;;;;;;;9.30;8.33;;;16.10;99.90;;;17.35;71.92;94708.72;5080892;28;20196;-72
2021/06/05 05:48:54;;;;;;;9.90;7.30;;;16.40;99.90;;;17.76;71.68;94716.28;5082712;28;20184;-72
2021/06/05 05:51:22;;;;;;;7.63;6.93;;;16.80;99.90;;;18.08;71.86;94712.88;5082496;28;21196;-72
2021/06/05 05:53:49;;;;;;;6.87;6.37;;;17.10;99.90;;;18.41;71.94;94703.75;5083776;28;20729;-72
2021/06/05 05:56:20;;;;;;;5.90;5.40;;;17.70;99.90;;;18.58;72.10;94695.19;5083583;28;20188;-73
2021/06/05 05:58:50;;;;;;;5.97;5.37;;;17.60;99.90;;;18.63;71.89;94703.16;5067306;28;20200;-71
2021/06/05 06:01:20;;;;;;;5.57;5.07;;;18.60;99.90;;;18.69;71.83;94697.41;5096127;28;20205;-72
2021/06/05 06:03:50;;;;;;;7.87;5.00;;;18.00;99.90;;;18.81;71.81;94702.28;5085612;28;20250;-73
2021/06/05 06:06:16;;;;;;;6.47;4.67;;;18.10;99.90;;;18.86;71.91;94713.78;5081649;28;20201;-73
2021/06/05 06:08:43;;;;;;;4.03;3.73;;;18.30;99.90;;;18.95;71.72;94697.75;5082676;28;20207;-72
2021/06/05 06:11:13;;;;;;;4.63;3.67;;;18.40;99.90;;;19.03;71.71;94685.53;5083742;28;20196;-73
2021/06/05 06:13:40;;;;;;;4.00;3.37;;;18.50;99.90;;;19.34;71.65;94708.03;5077602;28;20583;-73
2021/06/05 06:16:08;;;;;;;3.80;2.90;;;18.70;99.90;;;19.60;71.63;94694.91;5082329;28;20197;-72
2021/06/05 06:18:38;;;;;;;3.40;2.77;;;19.10;99.90;;;19.97;71.56;94721.53;5098076;28;20222;-73
2021/06/05 06:21:07;;;;;;;2.40;2.20;;;19.40;99.90;;;20.25;71.52;94711.47;5085149;28;20262;-73
2021/06/05 06:23:39;;;;;;;3.57;2.60;;;19.60;99.90;;;20.13;71.41;94711.22;5080883;28;20241;-73
2021/06/05 06:26:30;;;;;;;2.97;2.30;;;19.60;99.90;;;20.34;71.39;94712.38;5064465;28;21726;-72
2021/06/05 06:29:07;;;;;;;3.43;2.30;;;19.80;99.90;;;20.38;71.30;94697.22;5082974;28;20182;-72
2021/06/05 06:31:35;;;;;;;4.27;2.67;;;19.90;99.90;;;20.48;71.45;94715.03;5079094;28;20193;-71
2021/06/05 06:34:01;;;;;;;4.60;2.00;;;20.10;99.90;;;20.75;71.16;94701.44;5063790;28;20194;-72
2021/06/05 06:36:27;;;;;;;3.83;2.47;;;20.30;99.90;;;21.11;70.88;94718.31;5081893;28;20648;-73
2021/06/05 06:38:53;;;;;;;2.50;2.10;;;20.60;99.90;;;21.19;70.54;94705.94;5066158;28;20225;-72
2021/06/05 06:41:27;;;;;;;3.53;2.30;;;20.70;99.90;;;21.65;70.66;94732.47;5083958;28;20237;-72
2021/06/05 06:43:56;;;;;;;2.37;2.03;;;21.10;99.90;;;22.04;70.90;94729.72;5081081;28;20224;-71
2021/06/05 06:46:44;;;;;;;2.53;2.20;;;21.60;99.90;;;22.30;70.44;94730.53;5064548;28;20191;-72
2021/06/05 06:49:16;;;;;;;2.90;2.60;;;21.90;99.90;;;22.30;70.21;94714.34;5064996;28;20190;-73
2021/06/05 06:51:45;;;;;;;3.13;2.63;;;22.10;99.90;;;22.18;70.40;94732.28;5078016;28;20255;-73
2021/06/05 06:54:13;;;;;;;3.83;2.63;;;21.90;99.90;;;22.47;70.43;94718.94;5066963;28;20206;-72
2021/06/05 06:56:40;;;;;;;2.70;2.50;;;22.20;99.90;;;22.82;69.83;94722.44;5079923;28;20315;-72
2021/06/05 06:59:07;;;;;;;4.20;2.53;;;22.40;99.90;;;23.05;69.89;94731.13;5083039;28;20201;-72
2021/06/05 07:01:33;;;;;;;2.37;2.17;;;22.80;99.90;;;23.26;69.49;94727.44;5084657;28;20220;-72
2021/06/05 07:03:59;;;;;;;2.37;2.17;;;23.00;99.90;;;23.33;69.49;94740.44;5082508;28;20279;-72
2021/06/05 07:06:28;;;;;;;3.87;2.17;;;23.20;99.90;;;23.31;69.25;94731.84;5083658;28;20292;-71
2021/06/05 07:08:55;;;;;;;3.97;2.07;;;23.20;99.90;;;23.14;69.68;94724.59;5083623;28;20193;-72
2021/06/05 07:11:30;;;;;;;2.30;1.93;;;23.10;99.90;;;22.88;69.28;94740.88;5067135;28;20201;-71
2021/06/05 07:14:00;;;;;;;3.07;1.73;;;23.00;99.90;;;22.39;68.86;94703.53;5065804;28;20189;-72
2021/06/05 07:16:28;;;;;;;4.27;1.70;;;22.60;99.90;;;22.22;69.24;94736.75;5060553;28;20518;-72
2021/06/05 07:18:55;;;;;;;3.53;1.80;;;22.30;99.90;;;21.99;68.80;94744.16;5081038;28;20194;-72
2021/06/05 07:21:21;;;;;;;2.67;1.80;;;22.00;99.90;;;21.78;68.71;94750.44;5064106;28;20311;-73
2021/06/05 07:23:50;;;;;;;2.83;1.90;;;21.80;99.90;;;21.71;68.78;94744.72;5083579;28;20214;-71
2021/06/05 07:26:24;;;;;;;4.70;1.83;;;21.60;99.90;;;21.53;68.71;94754.63;5079899;28;20190;-71
2021/06/05 07:28:59;;;;;;;2.70;1.70;;;21.40;99.90;;;21.27;68.57;94759.94;5066570;28;20327;-70
2021/06/05 07:31:43;;;;;;;2.37;1.77;;;21.20;99.90;;;21.24;68.69;94784.03;5082098;28;20178;-71
2021/06/05 07:34:11;;;;;;;3.17;1.70;;;21.00;99.90;;;20.86;68.29;94743.16;5063411;28;20199;-72
2021/06/05 07:36:54;;;;;;;3.00;1.70;;;20.60;99.90;;;20.66;67.98;94778.69;5082167;28;20221;-72
2021/06/05 07:39:27;;;;;;;4.00;1.90;;;20.40;99.90;;;20.62;68.26;94756.94;5083305;28;20227;-72
2021/06/05 07:41:59;;;;;;;2.27;1.90;;;20.40;99.90;;;20.70;68.31;94777.78;5081267;28;20216;-72
2021/06/05 07:44:27;;;;;;;3.07;1.80;;;20.30;99.90;;;20.52;68.13;94754.50;5083284;28;20221;-71
2021/06/05 07:46:59;;;;;;;2.33;1.77;;;20.10;99.90;;;20.44;68.26;94780.28;5042375;28;20212;-72
2021/06/05 07:49:30;;;;;;;3.27;1.97;;;20.00;99.90;;;20.18;68.04;94775.75;5067237;28;20216;-71
2021/06/05 07:51:57;;;;;;;3.17;2.30;;;19.70;99.90;;;19.97;68.15;94778.06;5063697;28;20239;-71
2021/06/05 07:54:23;;;;;;;2.93;2.10;;;19.50;99.90;;;19.99;68.10;94767.78;5081385;28;20206;-71
2021/06/05 07:56:54;;;;;;;2.40;2.20;;;19.40;99.90;;;20.28;68.00;94776.31;5082780;28;20643;-71
2021/06/05 07:59:26;;;;;;;3.17;2.10;;;19.60;99.90;;;20.50;68.04;94788.22;5050348;28;20204;-73
2021/06/05 08:01:54;;;;;;;2.20;2.00;;;19.80;99.90;;;20.83;67.91;94789.59;5096394;28;20226;-72
2021/06/05 08:04:20;;;;;;;5.00;2.57;;;20.00;99.90;;;20.73;67.99;94752.13;5062127;28;20268;-71
2021/06/05 08:06:49;;;;;;;2.53;2.10;;;20.10;99.90;;;20.73;67.95;94760.19;5079935;28;20245;-73
2021/06/05 08:09:16;;;;;;;2.90;2.30;;;20.20;99.90;;;20.39;67.90;94763.41;5066089;28;20217;-73
2021/06/05 08:11:43;;;;;;;3.60;2.40;;;19.70;99.90;;;20.16;67.77;94767.94;5064951;28;20193;-73
2021/06/05 08:14:11;;;;;;;2.90;2.50;;;19.50;99.90;;;20.05;67.69;94766.56;5081015;28;20196;-74
2021/06/05 08:16:37;;;;;;;3.57;2.70;;;19.60;99.90;;;19.74;67.84;94757.56;5064217;28;20203;-72
2021/06/05 08:19:13;;;;;;;2.97;2.60;;;19.30;99.90;;;19.68;67.91;94774.88;5063533;28;20190;-72
2021/06/05 08:21:42;;;;;;;3.53;2.87;;;19.20;99.90;;;19.70;67.80;94770.00;5063396;28;20194;-74
2021/06/05 08:24:12;;;;;;;2.53;2.33;;;19.20;99.90;;;19.63;67.81;94775.00;5092809;28;20223;-74
2021/06/05 08:26:41;;;;;;;3.20;2.90;;;19.00;99.90;;;19.45;67.69;94755.97;5066602;28;20217;-74
2021/06/05 08:29:08;;;;;;;3.17;2.70;;;18.90;99.90;;;19.24;68.00;94770.84;5084165;28;20655;-71
2021/06/05 08:31:34;;;;;;;4.87;3.20;;;18.70;99.90;;;19.21;67.73;94774.13;5081454;28;20209;-73
2021/06/05 08:34:07;;;;;;;3.23;2.93;;;18.60;99.90;;;19.09;67.85;94779.19;5073738;28;20196;-74
2021/06/05 08:36:35;;;;;;;3.30;2.70;;;18.50;99.90;;;18.97;67.79;94778.06;5066170;28;20282;-72
2021/06/05 08:39:01;;;;;;;3.50;3.03;;;18.30;99.90;;;18.85;67.94;94778.53;5084987;28;20196;-70
2021/06/05 08:41:45;;;;;;;3.83;2.83;;;18.30;99.90;;;18.76;67.72;94783.78;5074706;28;20196;-72
2021/06/05 08:44:35;;;;;;;3.97;2.80;;;18.10;99.90;;;18.57;67.79;94774.94;5063775;28;20214;-71
2021/06/05 08:47:28;;;;;;;2.73;2.50;;;18.00;99.90;;;18.53;67.95;94782.00;5067102;28;20649;-73
2021/06/05 08:49:55;;;;;;;3.13;2.50;;;17.80;99.90;;;18.55;67.82;94774.44;5062641;28;20188;-71
2021/06/05 08:52:49;;;;;;;2.20;2.00;;;17.80;99.90;;;18.53;67.78;94783.88;5079875;28;20175;-72
2021/06/05 08:55:51;;;;;;;2.37;2.13;;;17.70;99.90;;;18.42;67.95;94788.56;5062037;28;20198;-75
2021/06/05 08:58:38;;;;;;;2.70;2.27;;;17.60;99.90;;;18.20;67.82;94782.97;5081648;28;20195;-75
2021/06/05 09:01:27;;;;;;;3.43;2.10;;;17.40;99.90;;;18.12;67.94;94794.38;5078856;28;20703;-74
2021/06/05 09:04:08;;;;;;;3.20;2.00;;;17.40;99.90;;;17.98;68.13;94786.25;5086897;28;20216;-76
2021/06/05 09:06:43;;;;;;;2.30;1.60;;;17.20;99.90;;;17.84;68.03;94790.72;5079245;28;20269;-76
2021/06/05 09:09:21;;;;;;;3.20;2.00;;;17.10;99.90;;;17.72;67.97;94793.00;5083481;28;20188;-75
2021/06/05 09:11:48;;;;;;;1.63;1.50;;;17.00;99.90;;;17.62;68.09;94793.94;5065733;28;20200;-76
2021/06/05 09:14:14;;;;;;;3.57;1.70;;;16.90;99.90;;;17.62;68.12;94791.25;5078116;28;20285;-74
2021/06/05 09:16:51;;;;;;;2.53;1.90;;;16.80;99.90;;;17.56;68.35;94802.31;5048433;28;20282;-75
2021/06/05 09:19:16;;;;;;;2.70;2.40;;;16.70;99.90;;;17.29;68.21;94792.91;5059565;28;20270;-76
2021/06/05 09:21:56;;;;;;;1.70;1.60;;;16.60;99.90;;;17.13;68.00;94801.38;5079417;28;20280;-75
2021/06/05 09:24:52;;;;;;;2.23;1.80;;;16.40;99.90;;;16.95;68.21;94812.81;5078991;28;20229;-76
2021/06/05 09:27:18;;;;;;;2.73;1.90;;;16.20;99.90;;;16.86;68.25;94794.66;5066563;28;21330;-76
2021/06/05 09:30:07;;;;;;;1.87;1.77;;;16.10;99.90;;;16.99;68.58;94808.50;5088005;28;20277;-76
2021/06/05 09:33:02;;;;;;;3.30;2.10;;;16.10;99.90;;;16.99;68.58;94808.50;5083771;28;20195;-75
2021/06/05 09:35:42;;;;;;;2.40;2.20;;;16.10;99.90;;;17.08;68.59;94799.56;5080239;28;20202;-76
2021/06/05 09:38:32;;;;;;;12.20;4.83;;;16.20;99.90;;;17.24;68.73;94816.28;5097405;28;20195;-77
2021/06/05 09:41:15;;;;;;;9.27;4.63;;;16.30;99.90;;;17.38;68.76;94809.97;5082744;28;20189;-75
2021/06/05 09:43:45;;;;;;;7.10;3.87;;;16.40;99.90;;;17.65;68.99;94811.31;5083976;28;20219;-75
2021/06/05 09:46:31;;;;;;;3.63;2.43;;;16.70;99.90;;;17.89;68.82;94820.16;5083507;28;20200;-75
2021/06/05 09:49:30;;;;;;;5.33;2.87;;;17.00;99.90;;;18.17;69.11;94824.63;5086020;28;20290;-76
2021/06/05 09:52:24;;;;;;;5.23;3.30;;;17.20;99.90;;;18.27;68.96;94811.06;5078599;28;20188;-75
2021/06/05 09:54:54;;;;;;;3.00;2.50;;;17.40;99.90;;;18.37;69.27;94808.22;5083386;28;20198;-74
2021/06/05 09:57:24;;;;;;;7.27;4.10;;;17.50;99.90;;;18.35;68.90;94796.19;5080284;28;20240;-76
2021/06/05 10:00:09;;;;;;;22.00;8.70;;;17.60;99.90;;;18.65;68.96;94821.81;5064004;28;20194;-76
2021/06/05 10:02:41;;;;;;;2.33;1.70;;;17.70;99.90;;;18.88;69.38;94815.53;5097326;28;20251;-75
2021/06/05 10:05:18;;;;;;;2.17;1.77;;;17.90;99.90;;;19.24;69.08;94803.09;5082776;28;20270;-76
2021/06/05 10:07:52;;;;;;;2.53;1.27;;;18.20;99.90;;;19.26;69.10;94806.31;5081308;28;20192;-76
2021/06/05 10:10:37;;;;;;;1.50;1.40;;;18.80;99.90;;;19.05;69.16;94806.94;5082655;28;20177;-76
2021/06/05 10:13:15;;;;;;;2.03;1.70;;;18.40;99.90;;;18.98;69.13;94812.69;5085606;28;20572;-73
2021/06/05 10:15:57;;;;;;;2.47;1.40;;;18.30;99.90;;;18.87;69.04;94813.94;5081968;28;20755;-74
2021/06/05 10:18:32;;;;;;;1.80;1.50;;;18.20;99.90;;;18.83;69.02;94824.50;5062643;28;20728;-75
2021/06/05 10:21:28;;;;;;;2.33;1.50;;;18.20;99.90;;;18.63;69.18;94830.19;5068781;28;20591;-75
2021/06/05 10:24:02;;;;;;;1.30;1.00;;;18.00;99.90;;;18.48;68.97;94818.81;5073503;28;20261;-75
2021/06/05 10:26:43;;;;;;;1.70;1.10;;;17.90;99.90;;;18.41;69.18;94837.97;5069132;28;20197;-73
2021/06/05 10:29:40;;;;;;;1.60;0.90;;;17.70;99.90;;;18.29;69.35;94837.63;5085536;28;20265;-73
2021/06/05 10:32:14;;;;;;;1.80;1.00;;;17.60;99.90;;;18.14;69.06;94830.56;5084504;28;20189;-74
2021/06/05 10:34:53;;;;;;;1.23;1.13;;;17.50;99.90;;;18.09;69.39;94838.69;5096141;28;20184;-75
2021/06/05 10:37:24;;;;;;;2.33;1.10;;;17.40;99.90;;;18.00;69.31;94826.97;5081421;28;20249;-75
2021/06/05 10:39:52;;;;;;;2.30;0.90;;;17.40;99.90;;;18.05;69.07;94837.66;5065474;28;20188;-75